2006 MISSING (2006012N03081)


On this page: IBTrACS data - Map and Plots - Positions - Intensities - Original source data

Summary

Start Jan 12
End Jan 19
Basin NI
LMI 45 kt
Sources jtwc_io
newdelhi
In WMO? Yes
Previous storm 2006 TAM (SP)
Previous in basin 2005 MISSING (NI)
Concurrent storms 2006 TAM (SP)
2006 MISSING (NI)
2006 URMIL (SP)
2006 DARYL (SI)
Next in basin Missing
Next storm 2006 URMIL (SP)

top of page IBTrACS Data: File Access

top of page HURSAT Data: File Access

Image of storm

top of page Plots:

Map of storm track will not appear if FTP is down
Time series of cyclone Maximum Sustained Wind will not appear if FTP is down
Time series of cyclone Minimum Central Pressure will not appear if FTP is down

top of page Track Data:Position

jtwc_io newdelhi
Date Lat Lon Lat Lon
2006-01-12 00:00:00 2.9 81.1
2006-01-12 06:00:00 3.0 80.5
2006-01-12 12:00:00 3.2 80.0
2006-01-12 18:00:00 3.5 79.5
2006-01-13 00:00:00 3.8 78.9
2006-01-13 06:00:00 4.3 78.1
2006-01-13 12:00:00 4.9 77.1 5.0 77.0
2006-01-13 18:00:00 5.9 76.1 5.3 76.5
2006-01-14 00:00:00 6.4 75.2 5.0 76.0
2006-01-14 06:00:00 6.7 74.4 7.0 74.0
2006-01-14 12:00:00 6.8 73.6 7.0 73.0
2006-01-14 18:00:00 7.0 72.8 7.0 72.5
2006-01-15 00:00:00 7.1 71.9 7.0 71.5
2006-01-15 06:00:00 6.9 71.0
2006-01-15 12:00:00 6.8 70.1
2006-01-15 18:00:00 6.9 69.3
2006-01-16 00:00:00 7.3 68.6
2006-01-16 06:00:00 7.9 68.0
2006-01-16 12:00:00 8.4 67.3
2006-01-16 18:00:00 8.5 66.1
2006-01-17 00:00:00 9.2 64.8
2006-01-17 06:00:00 9.8 63.4
2006-01-17 12:00:00 9.9 62.1
2006-01-17 18:00:00 9.6 61.0
2006-01-18 00:00:00 9.3 59.9
jtwc_io newdelhi
2006-01-18 06:00:00 9.3 58.8
2006-01-18 12:00:00 9.4 57.5
2006-01-18 18:00:00 9.3 56.2
2006-01-19 00:00:00 9.2 54.9
2006-01-19 06:00:00 8.9 53.6

top of pageTrack Data:Intensity

jtwc_io newdelhi
Date Wind Pres Wind Pres
2006-01-12 00:00:00 15. 1006.
2006-01-12 06:00:00 15. 1006.
2006-01-12 12:00:00 20. 1004.
2006-01-12 18:00:00 25. 1002.
2006-01-13 00:00:00 25. 1002.
2006-01-13 06:00:00 30. 1000.
2006-01-13 12:00:00 35. 997. 25. 1006.
2006-01-13 18:00:00 40. 994. 25. 1006.
2006-01-14 00:00:00 45. 991. 25. 1006.
2006-01-14 06:00:00 45. 991. 30. 1006.
2006-01-14 12:00:00 45. 991. 25. 1004.
2006-01-14 18:00:00 40. 994. 25. 1004.
2006-01-15 00:00:00 35. 997. 25. 1006.
2006-01-15 06:00:00 30. 1000.
2006-01-15 12:00:00 30. 1000.
2006-01-15 18:00:00 30. 1000.
2006-01-16 00:00:00 30. 1000.
2006-01-16 06:00:00 30. 1000.
2006-01-16 12:00:00 30. 1000.
2006-01-16 18:00:00 30. 1000.
2006-01-17 00:00:00 30. 1000.
2006-01-17 06:00:00 30. 1000.
2006-01-17 12:00:00 30. 1000.
2006-01-17 18:00:00 30. 1000.
2006-01-18 00:00:00 30. 1000.
jtwc_io newdelhi
2006-01-18 06:00:00 30. 1000.
2006-01-18 12:00:00 25. 1002.
2006-01-18 18:00:00 25. 1002.
2006-01-19 00:00:00 25. 1002.
2006-01-19 06:00:00 25. 1002.

top of page Links to source data

Source Source file Format
jtwc_io bio012006.txt ATCF
newdelhi New_Delhi_Tropical_Cyclone_Track_and_Intensity_Current.csv:Line=2553 New Delhi CSV file (from Excel file)